Waltonville, Illinois
Current Conditions -  °F | °C
As of 1:15 PM on Saturday 25 Oct 2014 (Local Time) from KMVN Reporting Station
Clear Clear  
Wind Chill: 75°   Ceiling: Unl
Heat Index: 75°   Visibility: 10mi
Dew Point: 59°   Wind: 3mph
Humidity: 57%   Direction: 270°W
Pressure: 30.02"   Gusts: NA
Location:  38.21°N, 89.04°W
Report Text: KMVN 251815Z AUTO 27003KT 10SM CLR 24/15 A3002 RMK AO1
Loading
Personal Weather Stations






























Interactive Weather Map
Tropical Storm Tracking
New forecast layout! Learn more

10-Day Weather Forecast

Advertisements
Track Severe Weather on mobile